createdAt,value
2022-10-08T00:00:59.361Z,41.17
2022-10-08T00:01:59.409Z,41.26
2022-10-08T00:02:59.325Z,41.13
2022-10-08T00:03:59.355Z,41.01
2022-10-08T00:04:59.302Z,40.89
2022-10-08T00:05:59.292Z,40.89
2022-10-08T00:06:59.276Z,41.01
2022-10-08T00:07:59.253Z,40.97
2022-10-08T00:08:59.271Z,41.22
2022-10-08T00:09:59.266Z,41.13
2022-10-08T00:10:59.263Z,41.42
2022-10-08T00:11:59.248Z,41.46
2022-10-08T00:12:59.201Z,41.96
2022-10-08T00:13:59.192Z,41.79
2022-10-08T00:14:59.187Z,41.92
2022-10-08T00:15:59.189Z,41.96
2022-10-08T00:16:59.159Z,41.62
2022-10-08T00:17:59.140Z,41.54
2022-10-08T00:18:59.121Z,41.88
2022-10-08T00:19:59.122Z,41.92
2022-10-08T00:20:59.123Z,42.00
2022-10-08T00:21:59.119Z,42.04
2022-10-08T00:22:59.127Z,41.75
2022-10-08T00:23:59.046Z,41.67
2022-10-08T00:24:59.035Z,41.83
2022-10-08T00:25:59.020Z,41.62
2022-10-08T00:26:59.008Z,41.42
2022-10-08T00:27:59.201Z,41.58
2022-10-08T00:28:59.021Z,41.30
2022-10-08T00:29:58.981Z,41.58
2022-10-08T00:30:58.974Z,41.17
2022-10-08T00:31:59.026Z,41.22
2022-10-08T00:33:00.008Z,41.50
2022-10-08T00:33:58.968Z,41.10
2022-10-08T00:34:58.925Z,41.05
2022-10-08T00:35:58.891Z,41.22
2022-10-08T00:36:58.900Z,41.38
2022-10-08T00:37:58.877Z,41.10
2022-10-08T00:38:58.875Z,41.67
2022-10-08T00:39:58.887Z,41.88
2022-10-08T00:40:58.847Z,41.88
2022-10-08T00:41:58.827Z,42.00
2022-10-08T00:42:58.829Z,42.30
2022-10-08T00:43:58.806Z,42.25
2022-10-08T00:44:58.816Z,42.64
2022-10-08T00:45:58.807Z,42.86
2022-10-08T00:46:58.765Z,43.30
2022-10-08T00:47:58.739Z,43.48
2022-10-08T00:48:58.723Z,43.62
2022-10-08T00:49:58.721Z,43.71
2022-10-08T00:50:58.730Z,43.89
2022-10-08T00:51:58.692Z,44.08
2022-10-08T00:52:58.689Z,44.26
2022-10-08T00:53:58.672Z,44.31
2022-10-08T00:54:58.649Z,44.59
2022-10-08T00:55:58.625Z,44.50
2022-10-08T00:56:58.650Z,44.93
2022-10-08T00:57:58.615Z,45.27
2022-10-08T00:58:58.590Z,45.46
2022-10-08T00:59:58.572Z,45.76
2022-10-08T01:00:58.658Z,45.96
2022-10-08T01:01:58.583Z,46.32
2022-10-08T01:02:58.554Z,46.32
2022-10-08T01:03:58.536Z,46.52
2022-10-08T01:04:58.520Z,47.04
2022-10-08T01:05:58.521Z,47.10
2022-10-08T01:06:58.508Z,47.12
2022-10-08T01:07:58.487Z,47.28
2022-10-08T01:08:58.490Z,47.90
2022-10-08T01:09:58.462Z,48.21
2022-10-08T01:10:58.432Z,48.63
2022-10-08T01:11:58.442Z,48.94
2022-10-08T01:12:58.434Z,49.58
2022-10-08T01:13:58.406Z,49.93
2022-10-08T01:14:58.457Z,50.26
2022-10-08T01:15:58.385Z,50.38
2022-10-08T01:16:58.389Z,50.56
2022-10-08T01:17:58.353Z,51.03
2022-10-08T01:18:58.388Z,50.87
2022-10-08T01:19:58.316Z,51.12
2022-10-08T01:20:58.300Z,51.18
2022-10-08T01:21:58.280Z,51.47
2022-10-08T01:22:58.279Z,51.66
2022-10-08T01:23:58.277Z,51.75
2022-10-08T01:24:58.276Z,52.17
2022-10-08T01:25:58.232Z,52.53
2022-10-08T01:26:58.242Z,52.17
2022-10-08T01:27:58.232Z,52.53
2022-10-08T01:28:58.196Z,52.70
2022-10-08T01:29:58.225Z,52.83
2022-10-08T01:30:58.197Z,52.70
2022-10-08T01:31:58.242Z,53.00
2022-10-08T01:32:58.141Z,53.33
2022-10-08T01:33:58.130Z,53.06
2022-10-08T01:34:58.146Z,52.93
2022-10-08T01:35:58.101Z,52.76
2022-10-08T01:36:58.088Z,52.80
2022-10-08T01:37:58.095Z,52.76
2022-10-08T01:38:58.063Z,52.93
2022-10-08T01:39:58.068Z,52.83
2022-10-08T01:40:58.085Z,52.66
2022-10-08T01:41:58.023Z,52.63
2022-10-08T01:42:58.016Z,52.63
2022-10-08T01:43:58.011Z,52.70
2022-10-08T01:44:58.009Z,52.43
2022-10-08T01:45:58.047Z,52.33
2022-10-08T01:46:57.970Z,52.33
2022-10-08T01:47:57.939Z,51.69
2022-10-08T01:48:57.938Z,51.62
2022-10-08T01:49:57.938Z,51.28
2022-10-08T01:50:57.952Z,50.93
2022-10-08T01:51:57.912Z,50.69
2022-10-08T01:52:57.897Z,50.44
2022-10-08T01:53:57.885Z,50.23
2022-10-08T01:54:57.864Z,49.78
2022-10-08T01:55:57.869Z,49.78
2022-10-08T01:56:57.848Z,49.49
2022-10-08T01:57:57.813Z,49.17
2022-10-08T01:58:57.799Z,48.83
2022-10-08T01:59:57.833Z,48.37
2022-10-08T02:00:57.854Z,48.29
2022-10-08T02:01:57.843Z,48.37
2022-10-08T02:02:57.750Z,47.90
2022-10-08T02:03:57.755Z,47.71
2022-10-08T02:04:57.742Z,47.63
2022-10-08T02:05:57.724Z,47.50
2022-10-08T02:06:57.755Z,47.66
2022-10-08T02:07:57.707Z,47.39
2022-10-08T02:08:57.694Z,47.36
2022-10-08T02:09:57.678Z,47.42
2022-10-08T02:10:57.657Z,47.52
2022-10-08T02:11:57.652Z,47.66
2022-10-08T02:12:57.645Z,47.15
2022-10-08T02:13:57.610Z,46.96
2022-10-08T02:14:57.598Z,46.89
2022-10-08T02:15:57.584Z,46.52
2022-10-08T02:16:57.575Z,46.26
2022-10-08T02:17:57.573Z,46.32
2022-10-08T02:18:57.553Z,46.16
2022-10-08T02:19:57.533Z,45.71
2022-10-08T02:20:57.529Z,45.36
2022-10-08T02:21:57.499Z,45.27
2022-10-08T02:22:57.500Z,44.97
2022-10-08T02:23:57.504Z,44.83
2022-10-08T02:24:57.456Z,44.40
2022-10-08T02:25:57.450Z,44.40
2022-10-08T02:26:57.446Z,44.26
2022-10-08T02:27:57.437Z,44.17
2022-10-08T02:28:57.427Z,44.08
2022-10-08T02:29:57.423Z,43.94
2022-10-08T02:30:57.395Z,44.03
2022-10-08T02:31:57.439Z,43.89
2022-10-08T02:32:57.369Z,43.66
2022-10-08T02:33:57.349Z,43.62
2022-10-08T02:34:57.360Z,43.85
2022-10-08T02:35:57.328Z,44.31
2022-10-08T02:36:57.303Z,44.08
2022-10-08T02:37:57.313Z,43.98
2022-10-08T02:38:57.282Z,44.17
2022-10-08T02:39:57.277Z,44.31
2022-10-08T02:40:57.262Z,44.59
2022-10-08T02:41:57.239Z,44.97
2022-10-08T02:42:57.250Z,45.02
2022-10-08T02:43:57.232Z,45.27
2022-10-08T02:44:57.221Z,45.02
2022-10-08T02:45:57.263Z,45.07
2022-10-08T02:46:57.191Z,45.27
2022-10-08T02:47:57.162Z,45.86
2022-10-08T02:48:57.159Z,45.91
2022-10-08T02:49:57.163Z,46.32
2022-10-08T02:50:57.140Z,45.96
2022-10-08T02:51:57.108Z,45.76
2022-10-08T02:52:57.113Z,45.76
2022-10-08T02:53:57.081Z,45.61
2022-10-08T02:54:57.109Z,45.91
2022-10-08T02:55:57.075Z,45.96
2022-10-08T02:56:57.044Z,45.81
2022-10-08T02:57:57.035Z,45.71
2022-10-08T02:58:57.016Z,45.71
2022-10-08T02:59:57.025Z,45.81
2022-10-08T03:00:57.022Z,45.46
2022-10-08T03:01:57.033Z,45.71
2022-10-08T03:02:56.978Z,45.61
2022-10-08T03:03:56.954Z,45.12
2022-10-08T03:04:56.936Z,45.27
2022-10-08T03:05:56.928Z,44.97
2022-10-08T03:06:56.948Z,44.78
2022-10-08T03:07:56.918Z,45.02
2022-10-08T03:08:56.912Z,45.02
2022-10-08T03:09:56.873Z,45.02
2022-10-08T03:10:56.874Z,45.07
2022-10-08T03:11:56.848Z,44.59
2022-10-08T03:12:56.834Z,45.02
2022-10-08T03:13:56.822Z,44.88
2022-10-08T03:14:56.837Z,44.74
2022-10-08T03:15:56.811Z,44.88
2022-10-08T03:16:56.856Z,44.88
2022-10-08T03:17:56.774Z,44.31
2022-10-08T03:18:56.754Z,44.36
2022-10-08T03:19:56.745Z,44.12
2022-10-08T03:20:56.728Z,44.17
2022-10-08T03:21:56.750Z,44.45
2022-10-08T03:22:56.723Z,44.12
2022-10-08T03:23:56.695Z,43.89
2022-10-08T03:24:57.053Z,43.89
2022-10-08T03:25:56.685Z,43.98
2022-10-08T03:26:56.673Z,44.36
2022-10-08T03:27:56.641Z,44.26
2022-10-08T03:28:56.622Z,44.08
2022-10-08T03:29:56.633Z,44.36
2022-10-08T03:30:56.656Z,44.36
2022-10-08T03:31:56.589Z,44.45
2022-10-08T03:32:56.577Z,44.64
2022-10-08T03:33:56.579Z,44.69
2022-10-08T03:34:56.552Z,44.97
2022-10-08T03:35:56.555Z,44.97
2022-10-08T03:36:56.551Z,44.59
2022-10-08T03:37:56.526Z,44.78
2022-10-08T03:38:56.520Z,45.12
2022-10-08T03:39:56.479Z,45.07
2022-10-08T03:40:56.464Z,45.36
2022-10-08T03:41:56.474Z,45.31
2022-10-08T03:42:56.461Z,44.97
2022-10-08T03:43:56.452Z,44.83
2022-10-08T03:44:56.429Z,45.12
2022-10-08T03:45:56.463Z,44.69
2022-10-08T03:46:56.394Z,44.97
2022-10-08T03:47:56.391Z,45.22
2022-10-08T03:48:56.358Z,45.46
2022-10-08T03:49:56.388Z,45.66
2022-10-08T03:50:56.333Z,45.66
2022-10-08T03:51:56.343Z,45.96
2022-10-08T03:52:56.308Z,45.66
2022-10-08T03:53:56.302Z,45.66
2022-10-08T03:54:56.304Z,45.51
2022-10-08T03:55:56.282Z,45.81
2022-10-08T03:56:56.273Z,45.71
2022-10-08T03:57:56.260Z,45.71
2022-10-08T03:58:56.246Z,45.41
2022-10-08T03:59:56.222Z,45.27
2022-10-08T04:00:56.233Z,45.46
2022-10-08T04:01:56.281Z,44.93
2022-10-08T04:02:56.259Z,44.74
2022-10-08T04:03:56.187Z,44.93
2022-10-08T04:04:56.174Z,44.45
2022-10-08T04:05:56.167Z,44.36
2022-10-08T04:06:56.124Z,44.08
2022-10-08T04:07:56.138Z,43.89
2022-10-08T04:08:56.111Z,43.85
2022-10-08T04:09:56.093Z,43.57
2022-10-08T04:10:56.093Z,43.39
2022-10-08T04:11:56.063Z,43.30
2022-10-08T04:12:56.052Z,43.26
2022-10-08T04:13:56.067Z,42.90
2022-10-08T04:14:56.037Z,42.69
2022-10-08T04:15:56.072Z,42.51
2022-10-08T04:16:55.990Z,42.17
2022-10-08T04:17:56.003Z,42.04
2022-10-08T04:18:55.982Z,42.47
2022-10-08T04:19:55.956Z,42.47
2022-10-08T04:20:55.941Z,42.73
2022-10-08T04:21:55.950Z,42.51
2022-10-08T04:22:55.931Z,42.30
2022-10-08T04:23:55.919Z,42.43
2022-10-08T04:24:55.915Z,42.21
2022-10-08T04:25:55.879Z,42.47
2022-10-08T04:26:55.893Z,42.04
2022-10-08T04:27:55.871Z,42.17
2022-10-08T04:28:55.896Z,42.13
2022-10-08T04:29:55.825Z,42.00
2022-10-08T04:30:55.854Z,41.92
2022-10-08T04:31:55.802Z,42.04
2022-10-08T04:32:55.784Z,41.58
2022-10-08T04:33:55.800Z,41.67
2022-10-08T04:34:55.761Z,41.34
2022-10-08T04:35:59.898Z,41.50
2022-10-08T04:36:55.724Z,41.34
2022-10-08T04:37:55.720Z,41.26
2022-10-08T04:38:55.735Z,41.58
2022-10-08T04:39:55.704Z,41.22
2022-10-08T04:40:55.685Z,41.38
2022-10-08T04:41:55.687Z,41.38
2022-10-08T04:42:55.651Z,41.26
2022-10-08T04:43:55.647Z,41.26
2022-10-08T04:44:55.652Z,41.46
2022-10-08T04:45:55.674Z,41.30
2022-10-08T04:46:55.618Z,41.42
2022-10-08T04:47:55.611Z,41.46
2022-10-08T04:48:55.609Z,41.50
2022-10-08T04:49:55.578Z,41.34
2022-10-08T04:50:55.544Z,41.38
2022-10-08T04:51:55.556Z,41.10
2022-10-08T04:52:55.516Z,41.22
2022-10-08T04:53:55.512Z,41.30
2022-10-08T04:54:55.506Z,41.38
2022-10-08T04:55:55.483Z,41.34
2022-10-08T04:56:55.473Z,41.42
2022-10-08T04:57:55.456Z,41.46
2022-10-08T04:58:55.459Z,41.42
2022-10-08T05:00:17.482Z,41.38
2022-10-08T05:00:55.420Z,41.42
2022-10-08T05:01:55.486Z,41.62
2022-10-08T05:02:55.428Z,41.88
2022-10-08T05:03:55.411Z,41.71
2022-10-08T05:04:55.373Z,41.88
2022-10-08T05:05:55.369Z,41.79
2022-10-08T05:06:55.341Z,41.88
2022-10-08T05:07:55.346Z,42.00
2022-10-08T05:08:55.314Z,41.96
2022-10-08T05:09:55.316Z,42.08
2022-10-08T05:10:55.284Z,42.04
2022-10-08T05:11:55.289Z,42.00
2022-10-08T05:12:55.252Z,41.83
2022-10-08T05:13:55.251Z,41.88
2022-10-08T05:14:55.234Z,41.83
2022-10-08T05:15:55.331Z,41.83
2022-10-08T05:16:55.218Z,41.79
2022-10-08T05:17:55.218Z,41.62
2022-10-08T05:18:55.195Z,41.88
2022-10-08T05:19:55.199Z,41.67
2022-10-08T05:20:55.148Z,41.83
2022-10-08T05:21:55.165Z,41.75
2022-10-08T05:22:55.121Z,41.75
2022-10-08T05:23:55.146Z,41.67
2022-10-08T05:24:55.103Z,41.62
2022-10-08T05:25:55.096Z,41.62
2022-10-08T05:26:59.207Z,41.54
2022-10-08T05:27:55.063Z,41.58
2022-10-08T05:28:55.055Z,41.58
2022-10-08T05:29:55.067Z,41.42
2022-10-08T05:30:55.064Z,41.71
2022-10-08T05:31:55.032Z,41.88
2022-10-08T05:32:55.002Z,42.00
2022-10-08T05:33:55.003Z,41.96
2022-10-08T05:34:54.995Z,41.96
2022-10-08T05:35:54.956Z,42.13
2022-10-08T05:36:54.939Z,42.04
2022-10-08T05:37:54.950Z,41.96
2022-10-08T05:38:54.916Z,42.08
2022-10-08T05:39:54.938Z,42.25
2022-10-08T05:40:54.912Z,42.00
2022-10-08T05:41:54.880Z,41.96
2022-10-08T05:42:54.879Z,42.21
2022-10-08T05:43:54.849Z,42.21
2022-10-08T05:44:54.842Z,42.38
2022-10-08T05:45:54.835Z,42.47
2022-10-08T05:46:54.907Z,42.47
2022-10-08T05:47:54.798Z,42.30
2022-10-08T05:48:54.801Z,42.34
2022-10-08T05:49:54.780Z,42.34
2022-10-08T05:50:54.782Z,42.30
2022-10-08T05:51:54.783Z,42.25
2022-10-08T05:52:54.727Z,42.13
2022-10-08T05:53:54.742Z,42.08
2022-10-08T05:54:54.720Z,42.00
2022-10-08T05:55:54.699Z,42.13
2022-10-08T05:56:54.692Z,42.21
2022-10-08T05:57:54.699Z,42.04
2022-10-08T05:58:54.684Z,42.08
2022-10-08T05:59:54.661Z,42.25
2022-10-08T06:00:54.634Z,42.17
2022-10-08T06:01:54.620Z,42.04
2022-10-08T06:02:54.656Z,42.17
2022-10-08T06:03:54.588Z,42.13
2022-10-08T06:04:54.626Z,42.21
2022-10-08T06:05:54.565Z,41.96
2022-10-08T06:06:54.559Z,42.21
2022-10-08T06:07:54.559Z,42.08
2022-10-08T06:08:54.520Z,42.13
2022-10-08T06:09:54.530Z,42.00
2022-10-08T06:10:54.523Z,41.96
2022-10-08T06:11:54.485Z,41.88
2022-10-08T06:12:54.508Z,41.83
2022-10-08T06:13:54.476Z,41.67
2022-10-08T06:14:54.450Z,41.71
2022-10-08T06:15:54.478Z,41.75
2022-10-08T06:16:54.422Z,41.79
2022-10-08T06:17:54.407Z,41.79
2022-10-08T06:18:54.387Z,41.62
2022-10-08T06:19:54.395Z,41.54
2022-10-08T06:20:54.377Z,41.62
2022-10-08T06:21:54.383Z,42.00
2022-10-08T06:22:54.351Z,42.08
2022-10-08T06:23:54.372Z,42.13
2022-10-08T06:24:54.333Z,42.08
2022-10-08T06:25:54.322Z,41.96
2022-10-08T06:26:54.402Z,42.13
2022-10-08T06:27:54.293Z,41.96
2022-10-08T06:28:54.301Z,42.00
2022-10-08T06:29:54.283Z,41.96
2022-10-08T06:30:54.308Z,42.04
2022-10-08T06:31:54.298Z,41.96
2022-10-08T06:32:54.244Z,41.92
2022-10-08T06:33:54.242Z,41.88
2022-10-08T06:34:54.241Z,41.71
2022-10-08T06:35:54.192Z,41.62
2022-10-08T06:36:54.212Z,41.96
2022-10-08T06:37:54.168Z,41.83
2022-10-08T06:38:54.179Z,41.96
2022-10-08T06:39:54.115Z,41.96
2022-10-08T06:40:54.115Z,42.08
2022-10-08T06:41:54.113Z,42.25
2022-10-08T06:42:54.103Z,42.43
2022-10-08T06:43:54.085Z,42.90
2022-10-08T06:44:56.649Z,43.17
2022-10-08T06:45:54.071Z,43.30
2022-10-08T06:46:54.075Z,43.30
2022-10-08T06:47:54.039Z,43.44
2022-10-08T06:48:54.016Z,43.80
2022-10-08T06:49:53.983Z,43.57
2022-10-08T06:50:53.996Z,43.89
2022-10-08T06:51:53.983Z,44.08
2022-10-08T06:52:53.968Z,44.31
2022-10-08T06:53:53.950Z,44.59
2022-10-08T06:54:53.950Z,45.17
2022-10-08T06:55:53.902Z,45.27
2022-10-08T06:56:53.913Z,45.61
2022-10-08T06:57:53.891Z,45.66
2022-10-08T06:58:53.904Z,46.01
2022-10-08T06:59:53.867Z,46.06
2022-10-08T07:00:53.887Z,46.06
2022-10-08T07:01:53.912Z,46.01
2022-10-08T07:02:53.822Z,46.26
2022-10-08T07:03:53.797Z,46.32
2022-10-08T07:04:53.809Z,46.21
2022-10-08T07:05:53.803Z,46.52
2022-10-08T07:06:53.766Z,46.26
2022-10-08T07:07:53.767Z,46.47
2022-10-08T07:08:53.769Z,46.68
2022-10-08T07:09:53.753Z,46.52
2022-10-08T07:10:53.736Z,46.68
2022-10-08T07:11:53.718Z,46.94
2022-10-08T07:12:53.736Z,46.73
2022-10-08T07:13:53.712Z,47.07
2022-10-08T07:14:53.709Z,47.23
2022-10-08T07:15:53.731Z,47.50
2022-10-08T07:16:53.769Z,47.47
2022-10-08T07:17:53.653Z,47.42
2022-10-08T07:18:53.638Z,47.50
2022-10-08T07:19:53.669Z,47.44
2022-10-08T07:20:53.617Z,47.52
2022-10-08T07:21:56.747Z,47.85
2022-10-08T07:22:53.619Z,47.82
2022-10-08T07:23:53.548Z,47.85
2022-10-08T07:24:53.566Z,47.77
2022-10-08T07:25:53.606Z,47.77
2022-10-08T07:26:53.547Z,48.12
2022-10-08T07:27:53.515Z,48.01
2022-10-08T07:28:53.495Z,47.85
2022-10-08T07:29:53.457Z,48.26
2022-10-08T07:30:53.466Z,48.46
2022-10-08T07:31:53.494Z,48.60
2022-10-08T07:32:53.439Z,48.68
2022-10-08T07:33:53.417Z,48.91
2022-10-08T07:34:57.827Z,49.43
2022-10-08T07:35:53.415Z,49.64
2022-10-08T07:36:53.470Z,49.75
2022-10-08T07:37:53.367Z,49.93
2022-10-08T07:38:53.367Z,50.05
2022-10-08T07:39:53.384Z,50.11
2022-10-08T07:40:53.332Z,50.35
2022-10-08T07:41:53.391Z,50.63
2022-10-08T07:42:53.295Z,50.78
2022-10-08T07:43:53.293Z,51.37
2022-10-08T07:44:53.283Z,51.53
2022-10-08T07:45:53.311Z,52.20
2022-10-08T07:46:53.240Z,52.60
2022-10-08T07:47:53.220Z,53.00
2022-10-08T07:48:53.219Z,53.54
2022-10-08T07:49:53.205Z,54.48
2022-10-08T07:50:53.181Z,54.48
2022-10-08T07:51:53.163Z,55.31
2022-10-08T07:52:53.175Z,55.60
2022-10-08T07:53:53.166Z,55.90
2022-10-08T07:54:53.127Z,56.50
2022-10-08T07:55:53.127Z,57.12
2022-10-08T07:56:53.103Z,57.16
2022-10-08T07:57:53.086Z,57.43
2022-10-08T07:58:53.111Z,57.91
2022-10-08T07:59:53.110Z,58.35
2022-10-08T08:00:53.103Z,59.01
2022-10-08T08:01:53.138Z,59.60
2022-10-08T08:02:53.055Z,60.81
2022-10-08T08:03:53.009Z,62.25
2022-10-08T08:04:53.039Z,63.87
2022-10-08T08:05:53.007Z,67.04
2022-10-08T08:06:53.099Z,69.72
2022-10-08T08:07:53.461Z,74.29
2022-10-08T08:08:53.067Z,79.44
2022-10-08T08:09:52.963Z,84.40
2022-10-08T08:10:52.920Z,88.41
2022-10-08T08:11:52.959Z,91.40
2022-10-08T08:12:52.941Z,93.55
2022-10-08T08:13:52.897Z,96.10
2022-10-08T08:14:52.865Z,102.01
2022-10-08T08:15:52.849Z,105.08
2022-10-08T08:16:52.912Z,108.13
2022-10-08T08:17:52.828Z,111.44
2022-10-08T08:18:52.841Z,118.54
2022-10-08T08:19:52.999Z,127.76
2022-10-08T08:20:52.802Z,135.41
2022-10-08T08:21:52.791Z,141.23
2022-10-08T08:22:52.772Z,145.40
2022-10-08T08:23:52.763Z,153.25
2022-10-08T08:24:52.764Z,164.54
2022-10-08T08:25:52.736Z,173.04
2022-10-08T08:26:55.596Z,181.87
2022-10-08T08:27:52.691Z,186.64
2022-10-08T08:28:52.678Z,195.27
2022-10-08T08:29:52.680Z,209.96
2022-10-08T08:30:52.667Z,223.50
2022-10-08T08:31:52.757Z,243.49
2022-10-08T08:32:52.628Z,267.85
2022-10-08T08:33:52.630Z,289.00
2022-10-08T08:34:52.605Z,308.20
2022-10-08T08:35:52.591Z,327.84
2022-10-08T08:36:52.594Z,346.46
2022-10-08T08:37:52.556Z,365.29
2022-10-08T08:38:52.548Z,390.96
2022-10-08T08:39:52.526Z,407.38
2022-10-08T08:40:52.545Z,417.81
2022-10-08T08:41:52.527Z,429.33
2022-10-08T08:42:52.543Z,443.27
2022-10-08T08:43:52.494Z,462.56
2022-10-08T08:44:52.485Z,476.05
2022-10-08T08:45:52.565Z,500.62
2022-10-08T08:46:52.459Z,524.55
2022-10-08T08:47:52.456Z,545.50
2022-10-08T08:48:52.415Z,555.92
2022-10-08T08:49:52.395Z,572.08
2022-10-08T08:50:52.416Z,591.80
2022-10-08T08:51:52.409Z,603.00
2022-10-08T08:52:52.372Z,627.89
2022-10-08T08:53:52.347Z,656.21
2022-10-08T08:54:52.350Z,663.36
2022-10-08T08:55:52.333Z,665.34
2022-10-08T08:56:52.359Z,672.02
2022-10-08T08:57:52.317Z,693.61
2022-10-08T08:58:52.307Z,712.81
2022-10-08T08:59:52.261Z,724.38
2022-10-08T09:00:52.314Z,733.91
2022-10-08T09:01:52.280Z,737.15
2022-10-08T09:02:52.235Z,759.21
2022-10-08T09:03:52.241Z,788.70
2022-10-08T09:04:52.207Z,811.14
2022-10-08T09:05:52.269Z,824.11
2022-10-08T09:06:52.211Z,847.03
2022-10-08T09:07:52.157Z,881.00
2022-10-08T09:08:52.161Z,909.09
2022-10-08T09:09:52.147Z,929.26
2022-10-08T09:10:52.130Z,947.00
2022-10-08T09:11:52.104Z,964.03
2022-10-08T09:12:52.116Z,980.25
2022-10-08T09:13:52.081Z,986.74
2022-10-08T09:14:52.302Z,1009.04
2022-10-08T09:15:52.058Z,1040.37
2022-10-08T09:16:52.117Z,1050.98
2022-10-08T09:17:52.103Z,1081.52
2022-10-08T09:18:52.051Z,1097.46
2022-10-08T09:19:52.063Z,1101.97
2022-10-08T09:20:52.031Z,1122.28
2022-10-08T09:21:51.996Z,1122.28
2022-10-08T09:22:51.966Z,1128.90
2022-10-08T09:23:52.050Z,1129.85
2022-10-08T09:24:51.946Z,1144.32
2022-10-08T09:25:51.938Z,1161.18
2022-10-08T09:26:52.958Z,1158.17
2022-10-08T09:27:51.896Z,1161.18
2022-10-08T09:28:51.889Z,1172.35
2022-10-08T09:29:51.889Z,1205.04
2022-10-08T09:30:51.918Z,1247.67
2022-10-08T09:31:51.864Z,1252.34
2022-10-08T09:32:51.856Z,1252.34
2022-10-08T09:33:51.836Z,1248.83
2022-10-08T09:34:51.844Z,1238.45
2022-10-08T09:35:51.830Z,1243.04
2022-10-08T09:36:51.805Z,1236.16
2022-10-08T09:37:51.788Z,1210.48
2022-10-08T09:38:51.761Z,1202.87
2022-10-08T09:39:51.756Z,1229.36
2022-10-08T09:40:51.900Z,1238.45
2022-10-08T09:41:51.723Z,1235.02
2022-10-08T09:42:51.701Z,1243.04
2022-10-08T09:43:51.684Z,1237.30
2022-10-08T09:44:51.676Z,1207.21
2022-10-08T09:45:51.711Z,1191.11
2022-10-08T09:46:51.685Z,1172.35
2022-10-08T09:47:51.674Z,1159.17
2022-10-08T09:48:51.622Z,1135.59
2022-10-08T09:49:51.611Z,1113.88
2022-10-08T09:50:51.608Z,1104.70
2022-10-08T09:51:51.608Z,1101.07
2022-10-08T09:52:51.607Z,1093.88
2022-10-08T09:53:51.592Z,1092.09
2022-10-08T09:54:51.582Z,1078.04
2022-10-08T09:55:51.554Z,1055.95
2022-10-08T09:56:51.517Z,1064.34
2022-10-08T09:57:51.498Z,1065.18
2022-10-08T09:58:51.491Z,1071.14
2022-10-08T09:59:51.484Z,1077.17
2022-10-08T10:00:51.486Z,1092.09
2022-10-08T10:01:51.532Z,1080.65
2022-10-08T10:02:51.453Z,1077.17
2022-10-08T10:03:51.463Z,1092.09
2022-10-08T10:04:51.415Z,1118.53
2022-10-08T10:05:51.424Z,1118.53
2022-10-08T10:06:51.424Z,1166.23
2022-10-08T10:07:51.386Z,1192.17
2022-10-08T10:08:51.363Z,1194.30
2022-10-08T10:09:51.348Z,1206.12
2022-10-08T10:10:51.395Z,1182.70
2022-10-08T10:11:51.339Z,1175.44
2022-10-08T10:12:51.328Z,1172.35
2022-10-08T10:13:51.294Z,1174.41
2022-10-08T10:14:51.288Z,1172.35
2022-10-08T10:15:51.292Z,1153.18
2022-10-08T10:16:51.296Z,1132.71
2022-10-08T10:17:51.253Z,1135.59
2022-10-08T10:18:51.258Z,1117.60
2022-10-08T10:19:51.221Z,1122.28
2022-10-08T10:20:51.230Z,1161.18
2022-10-08T10:21:51.223Z,1192.17
2022-10-08T10:22:51.260Z,1211.57
2022-10-08T10:23:51.179Z,1206.12
2022-10-08T10:24:51.158Z,1205.04
2022-10-08T10:25:51.149Z,1212.67
2022-10-08T10:26:51.149Z,1214.87
2022-10-08T10:27:51.126Z,1218.18
2022-10-08T10:28:51.125Z,1206.12
2022-10-08T10:29:51.082Z,1201.79
2022-10-08T10:30:51.140Z,1183.74
2022-10-08T10:31:51.081Z,1181.66
2022-10-08T10:32:51.063Z,1177.50
2022-10-08T10:33:51.048Z,1172.35
2022-10-08T10:34:51.030Z,1161.18
2022-10-08T10:35:51.004Z,1165.22
2022-10-08T10:36:50.993Z,1167.25
2022-10-08T10:37:50.985Z,1152.19
2022-10-08T10:38:50.967Z,1157.17
2022-10-08T10:39:50.981Z,1148.24
2022-10-08T10:40:50.962Z,1152.19
2022-10-08T10:41:50.957Z,1156.17
2022-10-08T10:42:51.172Z,1165.22
2022-10-08T10:43:50.929Z,1168.27
2022-10-08T10:44:50.911Z,1159.17
2022-10-08T10:45:50.938Z,1167.25
2022-10-08T10:46:50.879Z,1148.24
2022-10-08T10:47:50.867Z,1127.00
2022-10-08T10:48:50.850Z,1128.90
2022-10-08T10:49:50.832Z,1129.85
2022-10-08T10:50:50.811Z,1123.22
2022-10-08T10:51:50.818Z,1112.03
2022-10-08T10:52:51.055Z,1105.61
2022-10-08T10:53:50.848Z,1090.32
2022-10-08T10:54:50.786Z,1073.72
2022-10-08T10:55:54.562Z,1062.65
2022-10-08T10:56:50.776Z,1059.29
2022-10-08T10:57:50.762Z,1045.24
2022-10-08T10:58:50.746Z,1041.18
2022-10-08T10:59:50.735Z,1035.55
2022-10-08T11:00:50.749Z,996.28
2022-10-08T11:01:50.707Z,999.25
2022-10-08T11:02:51.120Z,973.13
2022-10-08T11:03:50.712Z,962.64
2022-10-08T11:04:50.673Z,961.26
2022-10-08T11:05:50.662Z,931.85
2022-10-08T11:06:50.613Z,926.05
2022-10-08T11:07:50.633Z,908.47
2022-10-08T11:08:50.615Z,883.91
2022-10-08T11:09:50.583Z,873.53
2022-10-08T11:10:50.561Z,864.52
2022-10-08T11:11:50.575Z,855.14
2022-10-08T11:12:50.849Z,855.14
2022-10-08T11:13:50.521Z,857.87
2022-10-08T11:14:50.481Z,871.26
2022-10-08T11:15:50.553Z,856.78
2022-10-08T11:16:50.471Z,835.41
2022-10-08T11:17:50.462Z,824.61
2022-10-08T11:18:50.427Z,812.61
2022-10-08T11:19:50.442Z,806.74
2022-10-08T11:20:50.406Z,789.63
2022-10-08T11:21:50.403Z,780.43
2022-10-08T11:22:50.710Z,774.57
2022-10-08T11:23:50.372Z,780.89
2022-10-08T11:24:50.369Z,776.36
2022-10-08T11:26:15.312Z,775.01
2022-10-08T11:26:50.349Z,802.88
2022-10-08T11:27:50.319Z,806.74
2022-10-08T11:28:50.357Z,813.60
2022-10-08T11:29:50.309Z,824.11
2022-10-08T11:30:50.329Z,817.57
2022-10-08T11:31:50.283Z,826.14
2022-10-08T11:32:50.751Z,828.70
2022-10-08T11:33:50.235Z,843.30
2022-10-08T11:34:50.225Z,851.33
2022-10-08T11:35:50.237Z,850.25
2022-10-08T11:36:50.195Z,858.97
2022-10-08T11:37:50.205Z,852.96
2022-10-08T11:38:50.189Z,861.18
2022-10-08T11:39:50.159Z,863.40
2022-10-08T11:40:50.161Z,868.44
2022-10-08T11:41:50.169Z,853.50
2022-10-08T11:42:50.578Z,829.21
2022-10-08T11:43:50.116Z,834.37
2022-10-08T11:44:50.140Z,809.18
2022-10-08T11:45:50.138Z,811.14
2022-10-08T11:46:50.073Z,791.03
2022-10-08T11:47:50.109Z,784.08
2022-10-08T11:48:50.077Z,780.89
2022-10-08T11:49:50.062Z,761.80
2022-10-08T11:50:50.027Z,752.81
2022-10-08T11:51:50.032Z,747.85
2022-10-08T11:52:50.264Z,736.34
2022-10-08T11:53:50.059Z,711.30
2022-10-08T11:54:54.517Z,694.33
2022-10-08T11:55:50.001Z,676.78
2022-10-08T11:56:49.947Z,660.09
2022-10-08T11:58:07.320Z,644.21
2022-10-08T11:58:49.925Z,622.05
2022-10-08T11:59:49.913Z,595.49
2022-10-08T12:00:49.959Z,575.03
2022-10-08T12:01:49.866Z,549.98
2022-10-08T12:02:50.306Z,525.38
2022-10-08T12:03:49.853Z,499.87
2022-10-08T12:04:49.832Z,482.23
2022-10-08T12:05:50.580Z,469.70
2022-10-08T12:06:49.816Z,454.09
2022-10-08T12:07:50.014Z,450.42
2022-10-08T12:08:49.801Z,448.61
2022-10-08T12:09:49.784Z,437.76
2022-10-08T12:10:49.821Z,421.49
2022-10-08T12:11:49.804Z,409.13
2022-10-08T12:12:50.356Z,396.76
2022-10-08T12:13:49.790Z,391.42
2022-10-08T12:14:49.686Z,390.28
2022-10-08T12:15:50.057Z,388.24
2022-10-08T12:16:49.792Z,386.00
2022-10-08T12:17:49.667Z,382.69
2022-10-08T12:18:49.739Z,386.67
2022-10-08T12:19:49.979Z,391.42
2022-10-08T12:20:49.843Z,391.19
2022-10-08T12:21:49.620Z,390.05
2022-10-08T12:22:49.935Z,382.47
2022-10-08T12:23:49.672Z,382.47
2022-10-08T12:24:50.723Z,388.69
2022-10-08T12:25:49.538Z,394.65
2022-10-08T12:26:49.615Z,398.41
2022-10-08T12:27:49.536Z,403.70
2022-10-08T12:28:49.516Z,409.13
2022-10-08T12:29:49.532Z,421.76
2022-10-08T12:30:49.493Z,428.78
2022-10-08T12:31:49.835Z,433.79
2022-10-08T12:32:49.912Z,434.35
2022-10-08T12:33:49.439Z,433.79
2022-10-08T12:34:49.442Z,437.18
2022-10-08T12:35:49.453Z,448.61
2022-10-08T12:36:49.452Z,455.33
2022-10-08T12:37:49.893Z,463.52
2022-10-08T12:38:49.376Z,468.72
2022-10-08T12:39:49.456Z,476.05
2022-10-08T12:40:49.367Z,477.07